createdAt,value
2019-04-23T00:04:05.868Z,4.80
2019-04-23T00:06:43.286Z,10.55
2019-04-23T00:09:17.758Z,6.53
2019-04-23T00:11:49.524Z,9.58
2019-04-23T00:14:24.013Z,7.78
2019-04-23T00:16:49.262Z,7.37
2019-04-23T00:19:27.724Z,7.62
2019-04-23T00:22:07.314Z,8.65
2019-04-23T00:25:28.969Z,5.25
2019-04-23T00:30:13.104Z,8.38
2019-04-23T00:32:44.660Z,6.75
2019-04-23T00:35:24.171Z,8.53
2019-04-23T00:37:49.545Z,7.12
2019-04-23T00:40:25.871Z,9.90
2019-04-23T00:43:00.644Z,9.78
2019-04-23T00:45:34.679Z,10.03
2019-04-23T00:48:10.802Z,9.35
2019-04-23T00:50:44.719Z,10.43
2019-04-23T00:53:10.927Z,6.40
2019-04-23T00:58:22.382Z,10.60
2019-04-23T01:03:23.634Z,10.55
2019-04-23T01:05:52.213Z,11.10
2019-04-23T01:08:30.206Z,9.65
2019-04-23T01:11:27.555Z,11.00
2019-04-23T01:14:06.671Z,8.60
2019-04-23T01:16:32.976Z,9.80
2019-04-23T01:19:48.409Z,10.03
2019-04-23T01:21:45.304Z,9.55
2019-04-23T01:24:34.353Z,10.60
2019-04-23T01:37:43.117Z,9.90
2019-04-23T01:40:27.225Z,10.43
2019-04-23T01:47:58.330Z,11.80
2019-04-23T01:50:29.171Z,10.05
2019-04-23T01:53:12.281Z,10.00
2019-04-23T01:55:36.761Z,9.93
2019-04-23T02:00:40.994Z,8.40
2019-04-23T02:03:16.610Z,11.83
2019-04-23T02:05:51.578Z,10.53
2019-04-23T02:08:21.001Z,11.50
2019-04-23T02:13:32.307Z,12.53
2019-04-23T02:15:59.864Z,12.18
2019-04-23T02:21:10.527Z,10.60
2019-04-23T02:26:32.120Z,11.30
2019-04-23T02:29:03.752Z,11.10
2019-04-23T02:31:57.464Z,12.10
2019-04-23T02:36:51.091Z,10.93
2019-04-23T02:39:11.596Z,9.68
2019-04-23T02:47:12.587Z,12.65
2019-04-23T02:49:35.907Z,8.70
2019-04-23T02:54:46.431Z,12.58
2019-04-23T02:57:05.775Z,11.12
2019-04-23T03:07:36.712Z,10.63
2019-04-23T03:10:00.535Z,10.88
2019-04-23T03:12:54.067Z,11.05
2019-04-23T03:15:32.954Z,11.70
2019-04-23T03:18:35.256Z,11.65
2019-04-23T03:23:42.291Z,10.85
2019-04-23T03:26:13.747Z,12.15
2019-04-23T03:32:45.288Z,12.58
2019-04-23T03:41:29.530Z,12.55
2019-04-23T03:46:43.671Z,9.50
2019-04-23T03:49:09.622Z,13.22
2019-04-23T03:51:42.886Z,14.10
2019-04-23T03:59:30.046Z,16.42
2019-04-23T04:02:20.609Z,14.53
2019-04-23T04:07:09.807Z,14.70
2019-04-23T04:09:44.869Z,14.38
2019-04-23T04:12:17.341Z,13.83
2019-04-23T04:17:14.365Z,14.23
2019-04-23T04:19:52.777Z,12.55
2019-04-23T04:22:28.498Z,15.35
2019-04-23T04:25:01.682Z,14.95
2019-04-23T04:32:31.590Z,15.53
2019-04-23T04:40:29.469Z,14.98
2019-04-23T04:42:44.258Z,16.87
2019-04-23T04:47:44.850Z,17.10
2019-04-23T04:50:19.234Z,16.75
2019-04-23T04:55:32.096Z,16.25
2019-04-23T04:57:58.635Z,14.30
2019-04-23T05:00:44.144Z,16.45
2019-04-23T05:03:22.224Z,16.15
2019-04-23T05:10:55.731Z,18.40
2019-04-23T05:15:53.898Z,13.53
2019-04-23T05:18:41.844Z,15.75
2019-04-23T05:21:20.243Z,17.25
2019-04-23T05:26:25.214Z,15.83
2019-04-23T05:29:06.424Z,16.32
2019-04-23T05:31:23.652Z,18.07
2019-04-23T05:34:02.562Z,17.40
2019-04-23T05:39:12.293Z,17.15
2019-04-23T05:41:36.871Z,18.62
2019-04-23T05:44:15.473Z,13.50
2019-04-23T05:49:22.710Z,14.63
2019-04-23T05:54:29.910Z,16.42
2019-04-23T05:56:54.223Z,15.83
2019-04-23T05:59:41.909Z,15.45
2019-04-23T06:04:35.771Z,17.90
2019-04-23T06:09:41.489Z,10.55
2019-04-23T06:17:21.349Z,16.62
2019-04-23T06:20:01.160Z,15.83
2019-04-23T06:22:49.291Z,13.95
2019-04-23T06:24:57.916Z,13.68
2019-04-23T06:27:32.050Z,14.50
2019-04-23T06:30:00.856Z,15.53
2019-04-23T06:32:37.993Z,15.63
2019-04-23T06:35:11.862Z,15.28
2019-04-23T06:38:13.610Z,13.43
2019-04-23T06:40:21.617Z,14.93
2019-04-23T06:43:11.579Z,18.35
2019-04-23T06:46:02.849Z,12.13
2019-04-23T06:48:25.743Z,13.65
2019-04-23T06:50:58.164Z,11.33
2019-04-23T06:53:19.483Z,14.33
2019-04-23T06:55:57.757Z,15.85
2019-04-23T06:58:32.776Z,12.70
2019-04-23T07:04:41.093Z,10.75
2019-04-23T07:07:31.381Z,8.90
2019-04-23T07:09:38.980Z,15.90
2019-04-23T07:12:17.553Z,12.40
2019-04-23T07:14:51.436Z,13.93
2019-04-23T07:17:13.327Z,13.80
2019-04-23T07:19:56.698Z,14.23
2019-04-23T07:22:26.368Z,15.68
2019-04-23T07:25:00.420Z,14.85
2019-04-23T07:27:36.034Z,9.88
2019-04-23T07:30:08.699Z,14.53
2019-04-23T07:32:35.762Z,16.00
2019-04-23T07:35:25.856Z,12.58
2019-04-23T07:37:50.186Z,13.68
2019-04-23T07:40:27.009Z,13.98
2019-04-23T07:43:11.589Z,13.58
2019-04-23T07:45:51.947Z,8.88
2019-04-23T07:48:24.288Z,12.50
2019-04-23T07:51:00.509Z,14.03
2019-04-23T07:53:35.106Z,11.83
2019-04-23T07:56:11.615Z,12.03
2019-04-23T07:58:33.238Z,10.05
2019-04-23T08:01:09.559Z,12.43
2019-04-23T08:03:45.081Z,13.22
2019-04-23T08:06:13.241Z,11.73
2019-04-23T08:08:54.597Z,10.23
2019-04-23T08:18:57.594Z,13.05
2019-04-23T08:21:30.655Z,12.53
2019-04-23T08:24:38.474Z,12.88
2019-04-23T08:27:18.188Z,12.90
2019-04-23T08:29:43.956Z,12.85
2019-04-23T08:35:10.588Z,12.55
2019-04-23T08:37:35.592Z,10.38
2019-04-23T08:42:46.276Z,9.78
2019-04-23T08:45:38.483Z,11.93
2019-04-23T08:48:30.797Z,11.48
2019-04-23T08:50:47.766Z,8.68
2019-04-23T08:58:31.987Z,11.45
2019-04-23T09:01:05.496Z,12.45
2019-04-23T09:03:34.819Z,11.63
2019-04-23T09:06:10.664Z,12.95
2019-04-23T09:08:47.958Z,17.05
2019-04-23T09:13:59.489Z,12.82
2019-04-23T09:16:44.375Z,9.80
2019-04-23T09:19:02.813Z,5.97
2019-04-23T09:21:33.233Z,8.18
2019-04-23T09:24:03.733Z,12.20
2019-04-23T09:26:33.100Z,11.68
2019-04-23T09:29:12.033Z,10.23
2019-04-23T09:32:22.473Z,8.35
2019-04-23T09:38:21.068Z,10.45
2019-04-23T09:41:06.933Z,12.82
2019-04-23T09:43:34.662Z,8.40
2019-04-23T09:46:25.712Z,10.03
2019-04-23T09:49:01.125Z,9.93
2019-04-23T09:51:32.849Z,14.85
2019-04-23T09:54:02.938Z,10.10
2019-04-23T09:56:37.649Z,12.13
2019-04-23T09:59:15.705Z,9.25
2019-04-23T10:01:29.338Z,10.60
2019-04-23T10:04:00.340Z,11.60
2019-04-23T10:06:25.017Z,10.58
2019-04-23T10:08:56.234Z,10.13
2019-04-23T10:11:26.173Z,10.70
2019-04-23T10:13:58.820Z,11.73
2019-04-23T10:16:34.040Z,7.53
2019-04-23T10:19:03.821Z,10.58
2019-04-23T10:21:35.357Z,11.12
2019-04-23T10:24:07.491Z,10.10
2019-04-23T10:26:39.956Z,8.55
2019-04-23T10:29:16.178Z,10.50
2019-04-23T10:31:47.394Z,10.55
2019-04-23T10:34:19.057Z,9.63
2019-04-23T10:36:51.600Z,8.63
2019-04-23T10:39:29.028Z,11.68
2019-04-23T10:41:57.569Z,12.80
2019-04-23T10:44:55.420Z,11.22
2019-04-23T10:51:29.081Z,9.50
2019-04-23T10:54:17.834Z,11.50
2019-04-23T10:56:42.526Z,12.20
2019-04-23T10:59:28.701Z,10.60
2019-04-23T11:02:29.611Z,13.75
2019-04-23T11:07:32.451Z,12.30
2019-04-23T11:20:29.961Z,15.90
2019-04-23T11:22:59.127Z,12.37
2019-04-23T11:25:33.035Z,12.07
2019-04-23T11:28:10.207Z,13.00
2019-04-23T11:33:15.220Z,9.75
2019-04-23T11:38:43.851Z,9.43
2019-04-23T11:40:41.727Z,12.33
2019-04-23T11:43:34.261Z,12.85
2019-04-23T11:46:06.350Z,13.85
2019-04-23T11:53:54.376Z,11.80
2019-04-23T11:56:19.312Z,12.00
2019-04-23T11:58:42.950Z,13.20
2019-04-23T12:04:28.837Z,11.80
2019-04-23T12:07:28.144Z,13.30
2019-04-23T12:10:20.027Z,12.00
2019-04-23T12:12:33.036Z,15.58
2019-04-23T12:15:13.592Z,14.40
2019-04-23T12:20:21.308Z,16.12
2019-04-23T12:23:08.844Z,12.15
2019-04-23T12:27:46.998Z,11.63
2019-04-23T12:30:39.652Z,8.48
2019-04-23T12:33:10.690Z,15.53
2019-04-23T12:35:35.183Z,10.45
2019-04-23T12:38:27.784Z,10.10
2019-04-23T12:40:45.786Z,14.60
2019-04-23T12:43:20.661Z,11.70
2019-04-23T12:51:19.917Z,13.35
2019-04-23T12:53:45.542Z,12.68
2019-04-23T12:56:05.087Z,13.32
2019-04-23T12:58:29.388Z,14.13
2019-04-23T13:01:16.364Z,13.25
2019-04-23T13:03:41.579Z,11.22
2019-04-23T13:06:16.948Z,11.80
2019-04-23T13:11:33.347Z,15.63
2019-04-23T13:13:58.825Z,15.50
2019-04-23T13:16:39.780Z,12.88
2019-04-23T13:19:06.416Z,11.73
2019-04-23T13:21:53.571Z,9.18
2019-04-23T13:24:27.551Z,15.88
2019-04-23T13:27:01.232Z,11.28
2019-04-23T13:32:17.116Z,13.25
2019-04-23T13:34:48.555Z,8.50
2019-04-23T13:37:19.092Z,12.00
2019-04-23T13:39:44.055Z,15.15
2019-04-23T13:42:34.009Z,10.95
2019-04-23T13:44:55.927Z,14.55
2019-04-23T13:47:43.443Z,12.05
2019-04-23T13:50:10.020Z,12.53
2019-04-23T13:52:59.311Z,12.75
2019-04-23T14:00:19.155Z,9.20
2019-04-23T14:02:43.407Z,12.68
2019-04-23T14:05:38.692Z,5.92
2019-04-23T14:08:11.834Z,12.43
2019-04-23T14:10:40.049Z,9.30
2019-04-23T14:20:59.033Z,10.95
2019-04-23T14:23:41.275Z,17.35
2019-04-23T14:26:18.597Z,13.45
2019-04-23T14:28:43.627Z,10.93
2019-04-23T14:36:15.726Z,12.07
2019-04-23T14:38:49.577Z,12.10
2019-04-23T14:44:03.656Z,10.28
2019-04-23T14:46:43.050Z,10.72
2019-04-23T14:49:03.920Z,14.03
2019-04-23T14:51:37.501Z,12.85
2019-04-23T14:54:04.835Z,8.28
2019-04-23T14:56:44.987Z,15.45
2019-04-23T14:59:12.138Z,12.65
2019-04-23T15:01:49.095Z,12.10
2019-04-23T15:04:28.857Z,11.45
2019-04-23T15:07:06.031Z,17.10
2019-04-23T15:09:36.751Z,14.00
2019-04-23T15:12:11.500Z,13.18
2019-04-23T15:14:46.542Z,17.60
2019-04-23T15:17:15.775Z,14.05
2019-04-23T15:19:53.060Z,17.20
2019-04-23T15:22:23.247Z,11.18
2019-04-23T15:25:06.246Z,14.18
2019-04-23T15:28:03.865Z,13.40
2019-04-23T15:29:52.587Z,18.00
2019-04-23T15:32:43.898Z,11.15
2019-04-23T15:35:23.787Z,15.83
2019-04-23T15:37:59.158Z,12.33
2019-04-23T15:40:15.378Z,11.63
2019-04-23T15:42:58.301Z,13.45
2019-04-23T15:47:58.361Z,16.70
2019-04-23T15:50:27.192Z,13.98
2019-04-23T15:53:03.200Z,20.88
2019-04-23T15:55:34.892Z,12.73
2019-04-23T16:00:38.759Z,10.95
2019-04-23T16:02:44.442Z,12.98
2019-04-23T16:05:18.449Z,19.48
2019-04-23T16:08:07.492Z,16.90
2019-04-23T16:10:54.561Z,16.40
2019-04-23T16:13:32.414Z,14.03
2019-04-23T16:16:02.579Z,12.15
2019-04-23T16:21:27.376Z,22.13
2019-04-23T16:23:50.308Z,18.07
2019-04-23T16:26:27.285Z,21.90
2019-04-23T16:29:23.398Z,17.67
2019-04-23T16:31:26.488Z,19.55
2019-04-23T16:34:29.102Z,19.17
2019-04-23T16:36:57.639Z,22.80
2019-04-23T16:39:37.772Z,17.27
2019-04-23T16:42:03.904Z,19.57
2019-04-23T16:44:38.276Z,14.13
2019-04-23T16:47:10.589Z,18.55
2019-04-23T16:49:33.020Z,19.67
2019-04-23T16:52:07.780Z,23.18
2019-04-23T16:54:51.790Z,19.42
2019-04-23T16:57:37.499Z,20.35
2019-04-23T17:00:03.041Z,26.33
2019-04-23T17:02:19.345Z,24.52
2019-04-23T17:04:55.075Z,24.32
2019-04-23T17:07:22.198Z,25.50
2019-04-23T17:12:19.989Z,22.48
2019-04-23T17:15:07.156Z,18.98
2019-04-23T17:17:40.876Z,21.37
2019-04-23T17:20:20.081Z,23.73
2019-04-23T17:22:39.187Z,21.20
2019-04-23T17:25:32.565Z,19.95
2019-04-23T17:27:54.488Z,22.37
2019-04-23T17:30:28.589Z,26.65
2019-04-23T17:33:13.578Z,25.85
2019-04-23T17:35:55.578Z,23.95
2019-04-23T17:38:38.967Z,21.55
2019-04-23T17:41:15.749Z,19.48
2019-04-23T17:43:39.888Z,19.60
2019-04-23T17:46:14.843Z,19.27
2019-04-23T17:48:52.124Z,22.52
2019-04-23T17:51:21.027Z,16.75
2019-04-23T17:54:04.729Z,13.90
2019-04-23T17:56:35.882Z,17.37
2019-04-23T17:59:13.256Z,25.95
2019-04-23T18:01:35.784Z,21.90
2019-04-23T18:06:51.065Z,20.32
2019-04-23T18:12:01.066Z,19.15
2019-04-23T18:14:18.179Z,26.42
2019-04-23T18:19:30.291Z,20.10
2019-04-23T18:25:06.202Z,25.70
2019-04-23T18:27:50.860Z,18.70
2019-04-23T18:30:35.205Z,21.35
2019-04-23T18:35:37.780Z,23.92
2019-04-23T18:41:02.512Z,21.85
2019-04-23T18:46:04.299Z,20.95
2019-04-23T18:48:43.878Z,24.18
2019-04-23T18:51:03.541Z,23.62
2019-04-23T18:56:15.310Z,24.18
2019-04-23T19:01:22.960Z,20.43
2019-04-23T19:04:51.039Z,22.48
2019-04-23T19:06:44.150Z,21.05
2019-04-23T19:15:28.593Z,18.45
2019-04-23T19:17:50.479Z,23.20
2019-04-23T19:20:38.258Z,29.72
2019-04-23T19:23:03.136Z,26.12
2019-04-23T19:25:28.290Z,23.42
2019-04-23T19:28:23.930Z,19.77
2019-04-23T19:31:03.259Z,24.55
2019-04-23T19:38:44.139Z,20.95
2019-04-23T19:41:19.185Z,21.27
2019-04-23T19:46:31.665Z,12.03
2019-04-23T19:49:05.430Z,11.63
2019-04-23T19:51:33.746Z,9.28
2019-04-23T19:56:45.297Z,10.45
2019-04-23T19:59:15.323Z,12.53
2019-04-23T20:01:48.217Z,11.25
2019-04-23T20:04:18.256Z,12.00
2019-04-23T20:09:40.030Z,7.60
2019-04-23T20:11:54.881Z,9.10
2019-04-23T20:14:32.357Z,9.48
2019-04-23T20:17:23.442Z,10.90
2019-04-23T20:19:45.317Z,11.38
2019-04-23T20:22:16.356Z,7.97
2019-04-23T20:30:29.173Z,12.33
2019-04-23T20:33:20.994Z,12.03
2019-04-23T20:35:16.479Z,10.48
2019-04-23T20:38:17.261Z,13.15
2019-04-23T20:40:32.519Z,10.75
2019-04-23T20:45:39.592Z,11.73
2019-04-23T20:48:12.771Z,10.85
2019-04-23T20:50:38.998Z,4.60
2019-04-23T20:53:13.490Z,9.00
2019-04-23T20:56:05.504Z,7.20
2019-04-23T20:58:52.138Z,16.02
2019-04-23T21:01:22.327Z,12.40
2019-04-23T21:06:28.371Z,9.80
2019-04-23T21:09:23.645Z,11.28
2019-04-23T21:11:40.398Z,14.65
2019-04-23T21:14:22.616Z,14.50
2019-04-23T21:16:41.286Z,12.25
2019-04-23T21:19:11.831Z,8.33
2019-04-23T21:22:11.296Z,12.13
2019-04-23T21:24:42.323Z,13.03
2019-04-23T21:27:21.829Z,11.83
2019-04-23T21:29:56.123Z,13.98
2019-04-23T21:32:24.964Z,9.50
2019-04-23T21:35:05.296Z,14.35
2019-04-23T21:37:54.236Z,12.88
2019-04-23T21:44:05.438Z,15.65
2019-04-23T21:46:23.340Z,13.18
2019-04-23T21:51:39.244Z,12.23
2019-04-23T21:56:32.417Z,5.60
2019-04-23T22:04:17.736Z,19.02
2019-04-23T22:06:54.148Z,18.52
2019-04-23T22:17:10.030Z,15.93
2019-04-23T22:19:45.573Z,15.20
2019-04-23T22:21:59.080Z,15.30
2019-04-23T22:24:33.192Z,16.27
2019-04-23T22:27:02.767Z,11.60
2019-04-23T22:29:39.149Z,14.28
2019-04-23T22:32:15.090Z,20.32
2019-04-23T22:34:51.857Z,18.67
2019-04-23T22:37:22.052Z,16.17
2019-04-23T22:39:52.408Z,16.52
2019-04-23T22:42:41.202Z,14.98
2019-04-23T22:45:07.129Z,16.90
2019-04-23T22:49:07.994Z,12.00
2019-04-23T22:51:43.779Z,15.45
2019-04-23T22:54:06.567Z,14.50
2019-04-23T22:56:44.037Z,17.45
2019-04-23T22:59:18.494Z,15.03
2019-04-23T23:04:23.690Z,15.45
2019-04-23T23:07:01.183Z,17.75
2019-04-23T23:09:25.374Z,15.50
2019-04-23T23:12:02.303Z,17.70
2019-04-23T23:14:35.398Z,18.73
2019-04-23T23:17:03.492Z,12.68
2019-04-23T23:24:46.016Z,19.15
2019-04-23T23:27:21.421Z,16.75
2019-04-23T23:29:58.144Z,18.55
2019-04-23T23:32:23.269Z,20.52
2019-04-23T23:35:09.664Z,20.55
2019-04-23T23:37:29.980Z,19.32
2019-04-23T23:40:15.097Z,17.48
2019-04-23T23:42:37.069Z,20.97
2019-04-23T23:45:21.593Z,18.67
2019-04-23T23:47:56.560Z,21.27
2019-04-23T23:50:22.723Z,16.67
2019-04-23T23:52:55.162Z,16.20
2019-04-23T23:55:25.033Z,15.40
2019-04-23T23:57:56.906Z,18.98
